sim
Sign-in with your pilot id or email,
or register
Callsign
Passwort

Schedule Details

Flight Number: DLH2504
Departure: Munich Airport (EDDM) at 21:15
Arrival: Manchester Airport (EGCC) at 23:25
Route: Lufthansa Passenger Schedule. Enter filed route here before submitting Pirep.

Weather Information
Getting current METAR information for EDDM 010820Z 12003KT 060V190 3500 1300E R08L/1700U R08R/1700U BCFG FEW001 09/08 Q1008 BECMG 5000
Getting current METAR information for EGCC 010820Z AUTO 22004KT 9999 FEW028 SCT035 BKN041 10/09 Q0997 NOSIG

Schedule Frequency

Route Map